METAR AND TAF INFORMATION
METAR FOR EHVK
ADDS - METARS form results

(1948 UTC 21 March 2019)
Data provider http://aviationweather.gov/metar/data/
 
METAR text: EHVK 211925Z AUTO 35004KT 6000 BR NCD 09/07 Q1033 WHT
Conditions at: EHVK (VOLKEL RNLAFB , NL) observed 1925 UTC 21 March 2019
Temperature: 9.0°C (48°F)
Dewpoint: 7.0°C (45°F) [RH = 87%]
Pressure (altimeter): 30.50 inches Hg (1033.0 mb)
Winds: from the N (350 degrees) at 5 MPH (4 knots; 2.1 m/s)
Visibility: 4 miles ( 6 km)
Ceiling: at least 12,000 feet AGL
Clouds: sky clear below 12,000 feet AGL
Weather: BR  (mist)

METAR text: EHVK 211855Z AUTO 35004KT 7000 BR BKN340 10/08 Q1033 WHT
Conditions at: EHVK (VOLKEL RNLAFB , NL) observed 1855 UTC 21 March 2019
Temperature: 10.0°C (50°F)
Dewpoint: 8.0°C (46°F) [RH = 87%]
Pressure (altimeter): 30.50 inches Hg (1033.0 mb)
Winds: from the N (350 degrees) at 5 MPH (4 knots; 2.1 m/s)
Visibility: 4 miles ( 7 km)
Ceiling: 34000 feet AGL
Clouds: broken clouds at 34000 feet AGL
Weather: BR  (mist)

Forecast for: EHVK (VOLKEL RNLAFB , NL)
Text: TAF EHVK 211339Z 2114/2202 23008KT 9999 FEW030
Forecast period: 1400 to 1800 UTC 21 March 2019
Forecast type: FROM: standard forecast or significant change
Winds: from the SW (230 degrees) at 9 MPH (8 knots; 4.1 m/s)
Visibility: 6 or more miles 10+ km)
Ceiling: at least 12,000 feet AGL
Clouds: few clouds at 3000 feet AGL
Weather: no significant weather forecast for this period
Text: BECMG 2118/2121 03003KT
Forecast period: 1800 UTC 21 March 2019 to 0000 UTC 22 March 2019
Forecast type: BECOMING: Conditions expected to become as follows by 2100 UTC 21 March 2019
Winds: from the NNE (30 degrees) at 3 MPH (3 knots; 1.5 m/s)
Visibility: 6 or more miles 10+ km)
Ceiling: at least 12,000 feet AGL
Clouds: few clouds at 3000 feet AGL
Weather: no significant weather forecast for this period
Text: BECMG 2200/2202 4000 BR
Forecast period: 0000 to 0200 UTC 22 March 2019
Forecast type: BECOMING: Conditions expected to become as follows by 0200 UTC 22 March 2019
Winds: from the NNE (30 degrees) at 3 MPH (3 knots; 1.5 m/s)
Visibility: 2.49 miles (4.01 km)
Ceiling: at least 12,000 feet AGL
Clouds: few clouds at 3000 feet AGL
Weather: BR  (mist)

 AIRPORT MAP

 RUNWAY INFORMATION
Runway 06L Runway length 9922 ft Runway width 148 ft
Runway elevation 71 ft Runway displaced threshold 444 ft Runway heading 58
Runway 24R Runway length 9922 ft Runway width 148 ft
Runway elevation 64 ft Runway displaced threshold 444 ft Runway heading 238
Runway 06R Runway length 9931 ft Runway width 74 ft
Runway elevation 72 ft Runway displaced threshold 446 ft Runway heading 58
Runway 24L Runway length 9931 ft Runway width 74 ft
Runway elevation 65 ft Runway displaced threshold 446 ft Runway heading 238

 AIRPORT FREQUENCIES
Type APP Name RAPCON SOU Frequency 123.175 MHZ
Type GND Name GND Frequency 38.677 MHZ
Type TWR Name TWR Frequency 133.425 MHZ

 AIRPORT NEAR NAVIGATION AIDS
Type TACAN Name Volkel Frequency 108300 KHZ